createdAt,value
2023-03-06T00:00:42.042Z,1.10
2023-03-06T00:05:36.326Z,1.20
2023-03-06T00:08:03.853Z,1.02
2023-03-06T00:10:31.606Z,0.85
2023-03-06T00:13:00.969Z,1.10
2023-03-06T00:15:28.930Z,0.70
2023-03-06T00:17:56.222Z,2.25
2023-03-06T00:20:24.123Z,1.02
2023-03-06T00:22:51.416Z,0.88
2023-03-06T00:25:20.786Z,0.95
2023-03-06T00:27:48.668Z,0.65
2023-03-06T00:30:19.049Z,0.70
2023-03-06T00:32:46.350Z,1.00
2023-03-06T00:35:14.375Z,0.47
2023-03-06T00:37:44.004Z,0.77
2023-03-06T00:40:14.114Z,0.68
2023-03-06T00:42:41.281Z,2.60
2023-03-06T00:45:09.863Z,3.13
2023-03-06T00:47:37.154Z,2.35
2023-03-06T00:50:05.232Z,2.20
2023-03-06T00:52:32.725Z,1.33
2023-03-06T00:54:59.844Z,2.25
2023-03-06T00:57:27.056Z,1.40
2023-03-06T00:59:54.188Z,0.95
2023-03-06T01:02:21.670Z,0.73
2023-03-06T01:04:48.836Z,1.10
2023-03-06T01:07:15.703Z,1.52
2023-03-06T01:09:42.862Z,1.08
2023-03-06T01:12:09.977Z,0.75
2023-03-06T01:14:37.205Z,0.95
2023-03-06T01:17:04.463Z,0.98
2023-03-06T01:19:31.530Z,2.25
2023-03-06T01:21:58.608Z,0.90
2023-03-06T01:24:26.161Z,1.80
2023-03-06T01:26:56.643Z,1.40
2023-03-06T01:29:23.837Z,1.67
2023-03-06T01:31:50.710Z,0.85
2023-03-06T01:34:18.214Z,0.90
2023-03-06T01:36:45.549Z,1.25
2023-03-06T01:39:12.448Z,0.55
2023-03-06T01:41:39.594Z,1.08
2023-03-06T01:44:06.402Z,0.82
2023-03-06T01:46:43.959Z,1.35
2023-03-06T01:49:26.476Z,0.70
2023-03-06T01:52:07.744Z,1.05
2023-03-06T01:54:37.702Z,0.77
2023-03-06T01:57:13.401Z,0.68
2023-03-06T01:59:42.842Z,1.10
2023-03-06T02:02:11.734Z,0.90
2023-03-06T02:04:40.843Z,0.90
2023-03-06T02:07:08.703Z,0.60
2023-03-06T02:09:37.292Z,0.75
2023-03-06T02:12:09.611Z,0.90
2023-03-06T02:14:37.304Z,0.90
2023-03-06T02:17:05.943Z,0.93
2023-03-06T02:19:40.884Z,0.75
2023-03-06T02:22:08.181Z,0.60
2023-03-06T02:24:45.711Z,0.90
2023-03-06T02:27:14.706Z,0.60
2023-03-06T02:29:42.966Z,0.47
2023-03-06T02:32:11.203Z,0.65
2023-03-06T02:34:38.371Z,0.77
2023-03-06T02:37:11.300Z,0.77
2023-03-06T02:39:43.609Z,0.98
2023-03-06T02:42:20.995Z,0.93
2023-03-06T02:44:49.104Z,0.60
2023-03-06T02:47:16.052Z,0.60
2023-03-06T02:49:43.275Z,0.52
2023-03-06T02:52:10.609Z,0.80
2023-03-06T02:54:39.982Z,1.02
2023-03-06T02:57:07.930Z,0.80
2023-03-06T02:59:35.560Z,1.05
2023-03-06T03:02:04.917Z,0.50
2023-03-06T03:04:34.269Z,1.02
2023-03-06T03:07:02.497Z,1.10
2023-03-06T03:09:29.782Z,0.75
2023-03-06T03:11:57.078Z,0.57
2023-03-06T03:14:25.156Z,0.60
2023-03-06T03:16:53.238Z,0.77
2023-03-06T03:19:20.557Z,0.55
2023-03-06T03:21:47.802Z,0.80
2023-03-06T03:24:15.090Z,0.70
2023-03-06T03:26:43.123Z,0.80
2023-03-06T03:29:14.729Z,0.82
2023-03-06T03:31:42.042Z,0.70
2023-03-06T03:34:09.629Z,1.05
2023-03-06T03:36:39.854Z,1.15
2023-03-06T03:39:08.982Z,1.02
2023-03-06T03:41:36.646Z,1.80
2023-03-06T03:44:07.226Z,1.20
2023-03-06T03:46:34.741Z,2.00
2023-03-06T03:49:03.253Z,1.10
2023-03-06T03:51:31.332Z,1.63
2023-03-06T03:53:59.641Z,1.50
2023-03-06T03:56:30.422Z,1.33
2023-03-06T03:59:05.391Z,1.58
2023-03-06T04:01:39.983Z,0.82
2023-03-06T04:04:08.338Z,1.23
2023-03-06T04:06:36.412Z,1.33
2023-03-06T04:09:04.840Z,1.67
2023-03-06T04:11:33.412Z,1.40
2023-03-06T04:14:01.111Z,1.50
2023-03-06T04:16:28.599Z,1.55
2023-03-06T04:18:56.329Z,1.35
2023-03-06T04:21:23.648Z,1.40
2023-03-06T04:23:50.953Z,1.20
2023-03-06T04:26:18.348Z,1.13
2023-03-06T04:28:45.841Z,0.90
2023-03-06T04:31:13.506Z,0.88
2023-03-06T04:33:40.844Z,1.10
2023-03-06T04:36:20.963Z,6.22
2023-03-06T04:41:16.488Z,1.55
2023-03-06T04:43:44.017Z,1.15
2023-03-06T04:46:11.832Z,1.90
2023-03-06T04:48:38.940Z,2.67
2023-03-06T04:51:07.067Z,4.78
2023-03-06T04:53:34.185Z,5.25
2023-03-06T04:56:01.534Z,5.68
2023-03-06T04:58:28.574Z,7.20
2023-03-06T05:00:56.093Z,1.90
2023-03-06T05:03:23.494Z,2.97
2023-03-06T05:05:51.061Z,1.10
2023-03-06T05:08:18.436Z,3.38
2023-03-06T05:10:46.245Z,2.55
2023-03-06T05:13:13.444Z,1.55
2023-03-06T05:15:42.377Z,2.30
2023-03-06T05:18:09.653Z,2.47
2023-03-06T05:20:36.918Z,2.15
2023-03-06T05:23:04.318Z,4.85
2023-03-06T05:25:31.435Z,2.92
2023-03-06T05:27:58.899Z,2.55
2023-03-06T05:30:26.315Z,2.03
2023-03-06T05:32:53.926Z,1.65
2023-03-06T05:35:23.769Z,1.52
2023-03-06T05:37:51.351Z,1.30
2023-03-06T05:40:19.480Z,0.95
2023-03-06T05:42:46.709Z,1.73
2023-03-06T05:45:14.062Z,2.10
2023-03-06T05:47:41.447Z,1.70
2023-03-06T05:50:10.803Z,2.00
2023-03-06T05:52:40.033Z,2.33
2023-03-06T05:55:08.493Z,1.90
2023-03-06T05:57:35.640Z,2.08
2023-03-06T06:00:04.154Z,1.88
2023-03-06T06:02:39.680Z,2.00
2023-03-06T06:05:08.190Z,2.92
2023-03-06T06:07:35.599Z,3.10
2023-03-06T06:10:03.879Z,4.00
2023-03-06T06:12:31.241Z,3.72
2023-03-06T06:14:58.741Z,2.38
2023-03-06T06:17:25.992Z,3.35
2023-03-06T06:19:53.392Z,3.00
2023-03-06T06:22:20.389Z,3.03
2023-03-06T06:24:47.549Z,2.20
2023-03-06T06:27:14.607Z,3.03
2023-03-06T06:29:41.988Z,2.50
2023-03-06T06:32:09.284Z,1.77
2023-03-06T06:34:36.797Z,1.95
2023-03-06T06:37:04.229Z,1.65
2023-03-06T06:39:31.373Z,2.90
2023-03-06T06:42:20.812Z,1.63
2023-03-06T06:44:46.019Z,1.45
2023-03-06T06:47:28.406Z,1.52
2023-03-06T06:49:56.650Z,1.40
2023-03-06T06:52:25.089Z,1.52
2023-03-06T06:54:53.279Z,1.10
2023-03-06T06:57:20.692Z,1.45
2023-03-06T06:59:48.047Z,1.10
2023-03-06T07:02:16.637Z,1.60
2023-03-06T07:05:02.121Z,2.40
2023-03-06T07:07:33.306Z,1.30
2023-03-06T07:10:00.658Z,1.23
2023-03-06T07:12:27.976Z,1.45
2023-03-06T07:14:55.242Z,1.60
2023-03-06T07:17:23.019Z,2.13
2023-03-06T07:19:50.332Z,1.55
2023-03-06T07:22:17.462Z,3.17
2023-03-06T07:24:44.554Z,1.67
2023-03-06T07:27:11.709Z,2.35
2023-03-06T07:29:38.986Z,4.13
2023-03-06T07:32:06.576Z,4.43
2023-03-06T07:34:34.055Z,3.47
2023-03-06T07:37:01.186Z,2.53
2023-03-06T07:39:30.142Z,2.45
2023-03-06T07:41:58.897Z,8.77
2023-03-06T07:44:26.950Z,5.10
2023-03-06T07:46:54.567Z,3.72
2023-03-06T07:49:22.078Z,12.35
2023-03-06T07:51:49.360Z,2.67
2023-03-06T07:54:16.604Z,2.60
2023-03-06T07:56:43.993Z,3.65
2023-03-06T07:59:12.064Z,3.17
2023-03-06T08:01:40.540Z,1.40
2023-03-06T08:04:07.874Z,1.80
2023-03-06T08:06:35.472Z,2.00
2023-03-06T08:09:02.849Z,1.63
2023-03-06T08:11:31.312Z,1.75
2023-03-06T08:13:59.685Z,1.77
2023-03-06T08:16:28.942Z,1.70
2023-03-06T08:18:57.027Z,1.88
2023-03-06T08:21:26.187Z,2.28
2023-03-06T08:23:53.712Z,2.97
2023-03-06T08:26:29.455Z,1.73
2023-03-06T08:28:58.523Z,1.83
2023-03-06T08:31:27.912Z,1.77
2023-03-06T08:33:56.265Z,2.95
2023-03-06T08:36:24.219Z,1.45
2023-03-06T08:38:52.143Z,2.90
2023-03-06T08:41:20.447Z,1.58
2023-03-06T08:43:47.868Z,2.45
2023-03-06T08:46:15.259Z,1.63
2023-03-06T08:48:42.658Z,1.95
2023-03-06T08:51:10.353Z,2.72
2023-03-06T08:53:43.397Z,2.03
2023-03-06T08:56:28.871Z,1.42
2023-03-06T08:58:57.839Z,1.40
2023-03-06T09:01:27.845Z,1.40
2023-03-06T09:03:56.690Z,1.58
2023-03-06T09:06:25.355Z,3.55
2023-03-06T09:08:53.485Z,16.88
2023-03-06T09:11:21.776Z,2.13
2023-03-06T09:13:49.356Z,0.95
2023-03-06T09:16:16.756Z,4.75
2023-03-06T09:18:44.062Z,48.53
2023-03-06T09:21:12.150Z,7.00
2023-03-06T09:23:39.751Z,28.20
2023-03-06T09:26:08.135Z,18.58
2023-03-06T09:28:39.544Z,14.10
2023-03-06T09:31:17.472Z,4.68
2023-03-06T09:33:45.296Z,6.13
2023-03-06T09:36:23.379Z,5.22
2023-03-06T09:38:51.157Z,1.23
2023-03-06T09:41:25.439Z,1.60
2023-03-06T09:44:06.492Z,12.15
2023-03-06T09:46:52.194Z,7.10
2023-03-06T09:49:35.161Z,9.95
2023-03-06T09:52:21.068Z,1.73
2023-03-06T09:54:54.346Z,4.78
2023-03-06T09:57:55.515Z,1.65
2023-03-06T10:00:27.862Z,10.52
2023-03-06T10:03:19.132Z,7.40
2023-03-06T10:06:16.659Z,2.40
2023-03-06T10:08:52.220Z,1.83
2023-03-06T10:11:25.099Z,45.65
2023-03-06T10:13:59.268Z,2.03
2023-03-06T10:16:29.649Z,3.42
2023-03-06T10:19:01.877Z,3.50
2023-03-06T10:21:58.081Z,0.95
2023-03-06T10:24:34.524Z,5.32
2023-03-06T10:27:14.276Z,4.00
2023-03-06T10:30:03.313Z,1.75
2023-03-06T10:32:58.956Z,3.95
2023-03-06T10:35:45.136Z,3.10
2023-03-06T10:38:25.934Z,1.15
2023-03-06T10:41:20.784Z,1.60
2023-03-06T10:44:09.686Z,1.92
2023-03-06T10:46:45.279Z,1.45
2023-03-06T10:49:28.594Z,2.03
2023-03-06T10:52:16.043Z,21.48
2023-03-06T10:54:44.643Z,8.48
2023-03-06T10:57:27.048Z,4.13
2023-03-06T10:59:57.496Z,8.55
2023-03-06T11:02:29.348Z,3.53
2023-03-06T11:04:58.315Z,1.52
2023-03-06T11:07:28.245Z,1.95
2023-03-06T11:09:58.674Z,1.75
2023-03-06T11:13:15.083Z,2.35
2023-03-06T11:15:56.696Z,5.47
2023-03-06T11:18:44.081Z,8.10
2023-03-06T11:21:32.482Z,5.30
2023-03-06T11:24:16.081Z,8.38
2023-03-06T11:26:57.172Z,6.03
2023-03-06T11:29:43.493Z,17.02
2023-03-06T11:32:40.238Z,5.72
2023-03-06T11:35:13.520Z,34.70
2023-03-06T11:37:51.600Z,10.38
2023-03-06T11:40:51.798Z,7.03
2023-03-06T11:43:45.245Z,20.80
2023-03-06T11:46:25.759Z,9.43
2023-03-06T11:49:06.113Z,14.35
2023-03-06T11:51:36.643Z,13.85
2023-03-06T11:54:04.019Z,30.23
2023-03-06T11:56:44.545Z,15.43
2023-03-06T11:59:19.232Z,19.35
2023-03-06T12:01:46.849Z,15.82
2023-03-06T12:04:13.863Z,7.32
2023-03-06T12:06:50.128Z,11.25
2023-03-06T12:09:20.602Z,7.05
2023-03-06T12:12:06.601Z,10.27
2023-03-06T12:14:49.732Z,12.00
2023-03-06T12:17:26.445Z,8.77
2023-03-06T12:20:12.411Z,8.90
2023-03-06T12:22:57.740Z,8.63
2023-03-06T12:25:39.740Z,16.88
2023-03-06T12:28:10.001Z,12.57
2023-03-06T12:31:02.740Z,8.98
2023-03-06T12:34:04.622Z,5.47
2023-03-06T12:36:50.510Z,10.60
2023-03-06T12:39:32.405Z,12.30
2023-03-06T12:42:23.265Z,9.68
2023-03-06T12:44:56.905Z,6.72
2023-03-06T12:47:26.650Z,4.15
2023-03-06T12:49:57.739Z,4.32
2023-03-06T12:52:30.543Z,14.57
2023-03-06T12:54:59.485Z,7.55
2023-03-06T12:57:27.145Z,5.95
2023-03-06T12:59:54.924Z,5.80
2023-03-06T13:02:47.502Z,5.57
2023-03-06T13:05:14.295Z,8.60
2023-03-06T13:08:38.771Z,4.93
2023-03-06T13:11:27.844Z,6.93
2023-03-06T13:13:55.509Z,5.25
2023-03-06T13:16:33.312Z,5.63
2023-03-06T13:19:16.808Z,5.18
2023-03-06T13:21:55.809Z,4.88
2023-03-06T13:27:02.534Z,4.20
2023-03-06T13:29:38.913Z,6.03
2023-03-06T13:32:14.484Z,5.40
2023-03-06T13:34:43.028Z,5.30
2023-03-06T13:37:25.275Z,6.03
2023-03-06T13:39:55.290Z,4.63
2023-03-06T13:42:37.073Z,6.50
2023-03-06T13:45:08.070Z,8.48
2023-03-06T13:48:33.598Z,5.65
2023-03-06T13:50:47.167Z,7.38
2023-03-06T13:53:40.862Z,5.57
2023-03-06T13:56:37.566Z,5.07
2023-03-06T13:59:14.292Z,4.10
2023-03-06T14:02:14.481Z,5.43
2023-03-06T14:04:55.242Z,6.30
2023-03-06T14:07:31.029Z,5.78
2023-03-06T14:10:23.167Z,4.72
2023-03-06T14:12:50.303Z,6.50
2023-03-06T14:15:37.297Z,4.90
2023-03-06T14:18:06.453Z,3.38
2023-03-06T14:20:39.257Z,4.07
2023-03-06T14:25:45.203Z,7.50
2023-03-06T14:28:27.520Z,7.70
2023-03-06T14:30:56.107Z,2.90
2023-03-06T14:33:37.978Z,2.60
2023-03-06T14:36:09.341Z,5.18
2023-03-06T14:38:45.190Z,4.20
2023-03-06T14:41:14.073Z,4.95
2023-03-06T14:43:41.340Z,4.63
2023-03-06T14:46:19.213Z,6.30
2023-03-06T14:48:47.815Z,5.18
2023-03-06T14:51:21.175Z,5.20
2023-03-06T14:53:49.839Z,6.40
2023-03-06T14:56:24.888Z,4.63
2023-03-06T14:58:52.721Z,5.53
2023-03-06T15:01:32.897Z,6.38
2023-03-06T15:04:00.898Z,5.32
2023-03-06T15:06:33.329Z,4.47
2023-03-06T15:09:24.798Z,5.82
2023-03-06T15:12:08.148Z,8.02
2023-03-06T15:14:42.174Z,4.80
2023-03-06T15:17:18.777Z,10.07
2023-03-06T15:19:48.877Z,11.98
2023-03-06T15:22:35.907Z,11.20
2023-03-06T15:25:21.610Z,11.85
2023-03-06T15:27:53.283Z,7.55
2023-03-06T15:30:27.948Z,11.52
2023-03-06T15:33:20.437Z,11.90
2023-03-06T15:36:17.954Z,11.73
2023-03-06T15:38:46.354Z,11.10
2023-03-06T15:41:42.103Z,14.63
2023-03-06T15:44:12.198Z,7.55
2023-03-06T15:46:39.741Z,6.88
2023-03-06T15:49:14.781Z,12.90
2023-03-06T15:51:43.619Z,8.77
2023-03-06T15:54:12.877Z,14.13
2023-03-06T15:56:42.360Z,12.10
2023-03-06T15:59:17.087Z,11.18
2023-03-06T16:01:44.451Z,10.13
2023-03-06T16:04:11.961Z,7.68
2023-03-06T16:06:38.933Z,7.25
2023-03-06T16:09:06.345Z,11.73
2023-03-06T16:11:43.362Z,9.75
2023-03-06T16:14:24.088Z,8.32
2023-03-06T16:16:54.451Z,14.25
2023-03-06T16:19:26.429Z,27.73
2023-03-06T16:21:55.388Z,17.75
2023-03-06T16:24:22.680Z,11.75
2023-03-06T16:26:51.075Z,35.22
2023-03-06T16:29:19.563Z,7.63
2023-03-06T16:31:46.588Z,7.43
2023-03-06T16:34:13.552Z,9.25
2023-03-06T16:36:40.421Z,7.03
2023-03-06T16:39:13.572Z,10.30
2023-03-06T16:41:40.415Z,15.85
2023-03-06T16:44:07.880Z,9.55
2023-03-06T16:46:37.687Z,10.05
2023-03-06T16:49:04.658Z,11.65
2023-03-06T16:51:31.994Z,8.40
2023-03-06T16:53:59.044Z,9.25
2023-03-06T16:56:31.592Z,13.73
2023-03-06T16:59:00.636Z,10.40
2023-03-06T17:01:27.903Z,10.93
2023-03-06T17:03:55.195Z,9.60
2023-03-06T17:06:23.367Z,11.68
2023-03-06T17:08:51.306Z,10.63
2023-03-06T17:11:20.571Z,11.23
2023-03-06T17:13:48.634Z,11.77
2023-03-06T17:16:16.689Z,10.23
2023-03-06T17:18:45.621Z,9.07
2023-03-06T17:21:17.640Z,9.10
2023-03-06T17:23:45.151Z,9.43
2023-03-06T17:26:13.919Z,11.98
2023-03-06T17:28:41.703Z,14.40
2023-03-06T17:31:20.347Z,14.25
2023-03-06T17:33:48.751Z,10.90
2023-03-06T17:36:16.764Z,14.40
2023-03-06T17:38:44.709Z,15.52
2023-03-06T17:41:12.523Z,17.10
2023-03-06T17:43:39.852Z,13.23
2023-03-06T17:46:12.756Z,14.40
2023-03-06T17:48:40.807Z,16.25
2023-03-06T17:51:08.066Z,13.35
2023-03-06T17:53:35.976Z,13.52
2023-03-06T17:56:05.643Z,14.60
2023-03-06T17:58:33.223Z,12.23
2023-03-06T18:01:01.116Z,15.15
2023-03-06T18:03:28.397Z,14.88
2023-03-06T18:06:02.152Z,17.00
2023-03-06T18:08:29.702Z,18.98
2023-03-06T18:11:01.080Z,20.85
2023-03-06T18:13:28.494Z,16.70
2023-03-06T18:15:55.780Z,15.18
2023-03-06T18:18:24.456Z,16.25
2023-03-06T18:20:51.962Z,15.63
2023-03-06T18:23:19.361Z,19.67
2023-03-06T18:25:46.862Z,18.45
2023-03-06T18:28:14.172Z,15.65
2023-03-06T18:30:42.752Z,19.17
2023-03-06T18:33:10.735Z,16.60
2023-03-06T18:35:38.074Z,21.73
2023-03-06T18:38:05.719Z,21.52
2023-03-06T18:40:32.971Z,18.50
2023-03-06T18:43:00.084Z,22.60
2023-03-06T18:45:27.515Z,18.48
2023-03-06T18:47:55.205Z,20.92
2023-03-06T18:50:22.545Z,19.45
2023-03-06T18:52:49.973Z,19.67
2023-03-06T18:55:17.504Z,22.73
2023-03-06T19:24:01.436Z,21.52
2023-03-06T19:26:28.399Z,26.15
2023-03-06T19:28:55.090Z,31.17
2023-03-06T19:31:27.156Z,28.75
2023-03-06T19:39:16.595Z,22.90
2023-03-06T19:41:43.431Z,18.20
2023-03-06T19:44:10.114Z,23.02
2023-03-06T19:46:37.745Z,30.48
2023-03-06T19:53:17.257Z,18.65
2023-03-06T19:55:44.203Z,19.83
2023-03-06T19:58:11.385Z,19.45
2023-03-06T20:00:38.556Z,20.30
2023-03-06T20:07:18.281Z,32.53
2023-03-06T20:09:45.204Z,23.00
2023-03-06T20:12:12.559Z,27.05
2023-03-06T20:14:39.254Z,24.33
2023-03-06T20:21:25.882Z,23.45
2023-03-06T20:23:53.915Z,18.00
2023-03-06T20:26:21.053Z,20.83
2023-03-06T20:28:47.935Z,21.05
2023-03-06T20:31:19.972Z,22.85
2023-03-06T20:33:49.355Z,19.58
2023-03-06T20:36:18.302Z,22.35
2023-03-06T20:38:45.022Z,26.00
2023-03-06T20:41:20.380Z,26.60
2023-03-06T20:43:49.234Z,22.17
2023-03-06T20:46:16.229Z,22.67
2023-03-06T20:48:43.662Z,23.33
2023-03-06T20:51:17.812Z,17.60
2023-03-06T20:53:44.594Z,9.73
2023-03-06T20:56:12.905Z,5.43
2023-03-06T20:58:39.703Z,5.85
2023-03-06T21:01:06.429Z,5.53
2023-03-06T21:03:33.040Z,4.55
2023-03-06T21:05:59.794Z,3.25
2023-03-06T21:08:26.934Z,3.83
2023-03-06T21:10:53.944Z,3.65
2023-03-06T21:13:20.829Z,5.07
2023-03-06T21:15:47.788Z,2.30
2023-03-06T21:18:14.630Z,2.95
2023-03-06T21:20:41.702Z,4.40
2023-03-06T21:23:09.353Z,2.25
2023-03-06T21:25:36.714Z,3.05
2023-03-06T21:28:03.540Z,4.97
2023-03-06T21:30:30.297Z,3.35
2023-03-06T21:32:57.112Z,3.45
2023-03-06T21:35:23.778Z,2.90
2023-03-06T21:37:50.506Z,3.75
2023-03-06T21:40:17.306Z,3.97
2023-03-06T21:42:44.203Z,4.00
2023-03-06T21:45:11.100Z,3.88
2023-03-06T21:47:38.892Z,3.90
2023-03-06T21:50:07.714Z,2.55
2023-03-06T21:52:34.386Z,4.68
2023-03-06T21:55:01.199Z,3.70
2023-03-06T21:57:27.911Z,2.92
2023-03-06T21:59:54.674Z,3.42
2023-03-06T22:02:23.888Z,4.32
2023-03-06T22:04:52.527Z,2.63
2023-03-06T22:07:20.267Z,4.32
2023-03-06T22:09:47.263Z,4.18
2023-03-06T22:12:14.474Z,3.13
2023-03-06T22:14:51.320Z,3.38
2023-03-06T22:17:26.859Z,4.47
2023-03-06T22:19:56.196Z,2.92
2023-03-06T22:22:23.029Z,3.20
2023-03-06T22:24:49.813Z,2.65
2023-03-06T22:27:16.909Z,1.90
2023-03-06T22:29:43.606Z,1.80
2023-03-06T22:32:10.401Z,1.70
2023-03-06T22:34:37.124Z,2.28
2023-03-06T22:37:04.229Z,2.28
2023-03-06T22:39:31.031Z,1.63
2023-03-06T22:41:58.313Z,1.95
2023-03-06T22:44:25.199Z,2.33
2023-03-06T22:46:52.151Z,2.40
2023-03-06T22:49:19.102Z,2.67
2023-03-06T22:51:45.694Z,2.70
2023-03-06T22:54:12.626Z,3.03
2023-03-06T22:56:40.656Z,2.80
2023-03-06T22:59:07.576Z,3.55
2023-03-06T23:01:34.899Z,3.38
2023-03-06T23:04:04.196Z,4.78
2023-03-06T23:06:33.144Z,17.38
2023-03-06T23:09:09.681Z,4.18
2023-03-06T23:11:54.938Z,3.33
2023-03-06T23:14:40.374Z,13.05
2023-03-06T23:17:26.088Z,4.18
2023-03-06T23:22:58.949Z,3.25
2023-03-06T23:25:40.771Z,3.28
2023-03-06T23:28:07.783Z,3.85
2023-03-06T23:30:34.584Z,3.97
2023-03-06T23:33:01.349Z,4.88
2023-03-06T23:35:28.052Z,4.63
2023-03-06T23:37:54.695Z,4.32
2023-03-06T23:40:22.075Z,4.95
2023-03-06T23:42:48.768Z,3.17
2023-03-06T23:45:15.740Z,3.65
2023-03-06T23:47:42.443Z,4.20
2023-03-06T23:50:09.882Z,3.13
2023-03-06T23:52:37.652Z,3.53
2023-03-06T23:55:05.696Z,3.60
2023-03-06T23:57:32.568Z,3.33
2023-03-06T23:59:59.275Z,4.25
